Time;durP1;ratioP1;P1;durP2;ratioP2;P2;SDS_P1;SDS_P2;PMS_P1;PMS_P2;Temp;Humidity;BMP_temperature;BMP_pressure;BME280_temperature;BME280_humidity;BME280_pressure;Samples;Min_cycle;Max_cycle;Signal;HPM_P1;HPM_P2
2023/11/23 00:00:58;;;;;;;3.53;2.37;;;;;;;4.45;69.55;101344.06;5009920;28;20210;-81
2023/11/23 00:03:26;;;;;;;3.43;2.60;;;;;;;4.50;69.88;101350.03;5011689;28;20211;-80
2023/11/23 00:05:53;;;;;;;4.40;2.47;;;;;;;4.55;70.08;101344.66;5009781;28;20199;-81
2023/11/23 00:08:20;;;;;;;5.20;2.70;;;;;;;4.60;70.68;101334.84;5007157;28;20682;-80
2023/11/23 00:10:46;;;;;;;2.43;2.10;;;;;;;4.67;70.86;101322.31;5008431;28;20207;-80
2023/11/23 00:13:13;;;;;;;4.57;3.13;;;;;;;4.68;70.86;101322.28;5010653;28;20211;-81
2023/11/23 00:15:39;;;;;;;4.07;2.80;;;;;;;4.73;71.42;101325.66;5009223;28;20696;-81
2023/11/23 00:18:06;;;;;;;4.63;3.00;;;;;;;4.77;72.18;101319.41;5009162;28;20211;-81
2023/11/23 00:20:34;;;;;;;5.93;2.93;;;;;;;4.80;72.22;101321.09;5008215;28;20207;-80
2023/11/23 00:23:00;;;;;;;4.20;3.07;;;;;;;4.82;72.91;101330.69;5010955;28;20209;-81
2023/11/23 00:25:27;;;;;;;4.43;3.30;;;;;;;4.84;73.09;101314.78;5009985;28;20685;-80
2023/11/23 00:27:54;;;;;;;3.73;3.27;;;;;;;4.88;73.89;101304.13;5007918;28;20223;-80
2023/11/23 00:30:21;;;;;;;6.90;3.50;;;;;;;4.89;74.33;101302.34;5012180;28;20691;-80
2023/11/23 00:32:48;;;;;;;5.10;3.50;;;;;;;4.95;74.89;101306.59;5012985;28;20226;-80
2023/11/23 00:35:14;;;;;;;5.60;3.60;;;;;;;4.98;76.08;101306.50;5014067;28;20219;-80
2023/11/23 00:37:44;;;;;;;5.73;3.43;;;;;;;4.97;75.97;101302.13;5010044;28;20228;-80
2023/11/23 00:40:12;;;;;;;6.00;3.73;;;;;;;4.98;77.07;101304.72;5009220;28;20204;-81
2023/11/23 00:42:39;;;;;;;4.50;3.40;;;;;;;5.02;77.03;101297.53;5012468;28;20206;-81
2023/11/23 00:45:07;;;;;;;5.90;3.30;;;;;;;5.01;77.54;101287.94;5011978;28;20203;-80
2023/11/23 00:47:33;;;;;;;6.67;3.80;;;;;;;5.04;77.92;101283.41;5009928;28;20253;-80
2023/11/23 00:50:00;;;;;;;6.70;3.67;;;;;;;5.05;78.27;101276.34;5010326;28;20203;-80
2023/11/23 00:52:26;;;;;;;5.80;3.80;;;;;;;5.06;78.35;101267.50;5008360;28;20208;-81
2023/11/23 00:54:54;;;;;;;5.20;3.43;;;;;;;5.07;78.38;101271.88;5009625;28;20234;-80
2023/11/23 00:57:21;;;;;;;5.07;3.23;;;;;;;5.08;78.41;101268.34;5006361;28;20223;-79
2023/11/23 00:59:47;;;;;;;6.00;3.80;;;;;;;5.09;78.65;101280.63;5007429;28;20677;-80
2023/11/23 01:02:14;;;;;;;4.60;3.30;;;;;;;5.11;79.03;101278.81;5010209;28;20226;-80
2023/11/23 01:04:42;;;;;;;8.00;3.70;;;;;;;5.13;79.24;101269.06;5009400;28;20214;-81
2023/11/23 01:07:08;;;;;;;5.30;3.77;;;;;;;5.15;79.88;101264.59;5010738;28;20230;-80
2023/11/23 01:09:35;;;;;;;3.97;3.33;;;;;;;5.19;80.30;101268.88;5009671;28;20586;-81
2023/11/23 01:12:08;;;;;;;6.03;3.47;;;;;;;5.22;80.56;101269.63;5008048;28;20668;-80
2023/11/23 01:14:34;;;;;;;7.80;3.53;;;;;;;5.24;81.45;101273.09;5008771;28;20298;-81
2023/11/23 01:17:03;;;;;;;7.07;3.67;;;;;;;5.28;82.26;101275.63;5005527;28;20486;-81
2023/11/23 01:19:29;;;;;;;4.97;3.40;;;;;;;5.35;82.68;101261.34;5010336;28;20607;-80
2023/11/23 01:21:56;;;;;;;8.57;4.53;;;;;;;5.31;82.79;101265.84;5009652;28;20211;-80
2023/11/23 01:24:22;;;;;;;6.83;3.30;;;;;;;5.36;84.02;101266.56;5006154;28;20210;-80
2023/11/23 01:26:48;;;;;;;10.57;4.70;;;;;;;5.39;84.69;101253.25;5003848;28;20238;-80
2023/11/23 01:29:18;;;;;;;8.50;4.43;;;;;;;5.44;84.83;101269.81;5008392;28;20206;-81
2023/11/23 01:31:44;;;;;;;7.07;4.83;;;;;;;5.45;84.85;101257.47;5007106;28;20727;-81
2023/11/23 01:34:10;;;;;;;6.43;4.50;;;;;;;5.45;85.41;101246.91;5007814;28;20214;-80
2023/11/23 01:36:37;;;;;;;5.33;4.13;;;;;;;5.43;84.92;101246.94;5009128;28;20321;-81
2023/11/23 01:39:04;;;;;;;7.17;4.30;;;;;;;5.44;85.43;101242.53;5009859;28;20226;-80
2023/11/23 01:41:31;;;;;;;5.33;4.20;;;;;;;5.43;85.77;101228.47;5009359;28;20215;-80
2023/11/23 01:43:57;;;;;;;5.03;3.33;;;;;;;5.47;86.32;101240.66;5007497;28;20585;-80
2023/11/23 01:46:25;;;;;;;6.50;4.43;;;;;;;5.47;86.49;101230.09;5004530;28;20601;-81
2023/11/23 01:48:54;;;;;;;7.27;4.90;;;;;;;5.50;86.96;101243.22;5009954;28;20226;-81
2023/11/23 01:51:21;;;;;;;12.17;5.03;;;;;;;5.52;87.76;101224.66;5009817;28;20242;-80
2023/11/23 01:53:47;;;;;;;8.03;4.50;;;;;;;5.51;87.99;101221.16;5007711;28;20572;-81
2023/11/23 01:56:15;;;;;;;8.30;5.20;;;;;;;5.50;88.70;101211.50;5007443;28;20239;-79
2023/11/23 01:58:42;;;;;;;9.00;5.13;;;;;;;5.52;89.75;101212.31;5008659;28;20199;-80
2023/11/23 02:01:09;;;;;;;7.30;5.73;;;;;;;5.53;91.04;101216.69;5005848;28;20222;-80
2023/11/23 02:03:38;;;;;;;8.33;5.07;;;;;;;5.59;91.90;101223.53;5008420;28;20211;-80
2023/11/23 02:06:04;;;;;;;8.63;6.00;;;;;;;5.61;92.97;101215.53;5011112;28;20223;-80
2023/11/23 02:08:31;;;;;;;8.90;6.20;;;;;;;5.58;94.00;101220.03;5008381;28;20203;-80
2023/11/23 02:10:58;;;;;;;8.80;6.63;;;;;;;5.65;94.86;101219.81;5011696;28;20265;-81
2023/11/23 02:13:25;;;;;;;9.27;5.57;;;;;;;5.68;96.00;101215.31;5011201;28;20207;-80
2023/11/23 02:15:52;;;;;;;8.20;5.60;;;;;;;5.67;95.77;101200.34;5012672;28;20242;-80
2023/11/23 02:18:18;;;;;;;10.07;6.47;;;;;;;5.69;96.88;101208.25;5012766;28;20675;-80
2023/11/23 02:20:47;;;;;;;9.70;7.37;;;;;;;5.68;97.00;101193.28;5007269;28;20290;-80
2023/11/23 02:23:13;;;;;;;12.87;7.60;;;;;;;5.72;98.04;101185.22;5011784;28;20257;-80
2023/11/23 02:25:42;;;;;;;13.10;6.90;;;;;;;5.72;98.71;101181.72;5009236;28;20291;-80
2023/11/23 02:28:08;;;;;;;11.77;8.03;;;;;;;5.72;98.66;101184.34;5011156;28;20211;-79
2023/11/23 02:30:35;;;;;;;14.57;8.30;;;;;;;5.74;99.71;101171.91;5009743;28;20207;-80
2023/11/23 02:33:03;;;;;;;11.33;7.90;;;;;;;5.75;100.00;101173.66;5011872;28;20207;-80
2023/11/23 02:35:29;;;;;;;11.17;7.57;;;;;;;5.77;100.00;101170.03;5013893;28;20223;-80
2023/11/23 02:37:56;;;;;;;9.40;6.80;;;;;;;5.78;100.00;101187.63;5010548;28;20233;-80
2023/11/23 02:40:22;;;;;;;14.43;9.13;;;;;;;5.79;100.00;101170.00;5008785;28;20215;-80
2023/11/23 02:42:50;;;;;;;12.33;8.73;;;;;;;5.79;100.00;101170.84;5011715;28;20688;-81
2023/11/23 02:45:17;;;;;;;12.60;8.43;;;;;;;5.80;100.00;101174.34;5005872;28;20217;-80
2023/11/23 02:47:43;;;;;;;12.47;8.67;;;;;;;5.83;100.00;101161.03;5011741;28;20218;-80
2023/11/23 02:50:11;;;;;;;15.77;8.07;;;;;;;5.84;100.00;101178.63;5010002;28;20213;-80
2023/11/23 02:52:37;;;;;;;12.00;7.33;;;;;;;5.86;100.00;101171.50;5009284;28;20211;-80
2023/11/23 02:55:04;;;;;;;13.97;9.27;;;;;;;5.88;100.00;101167.03;5010039;28;20211;-81
2023/11/23 02:57:31;;;;;;;11.97;8.07;;;;;;;5.88;100.00;101173.22;5010718;28;20730;-80
2023/11/23 02:59:59;;;;;;;15.83;8.27;;;;;;;5.89;100.00;101150.28;5011899;28;20207;-80
2023/11/23 03:02:25;;;;;;;14.03;9.77;;;;;;;5.89;100.00;101152.94;5009633;28;20221;-80
2023/11/23 03:04:53;;;;;;;13.13;8.80;;;;;;;5.92;100.00;101160.72;5009199;28;20211;-80
2023/11/23 03:07:20;;;;;;;14.30;9.17;;;;;;;5.93;100.00;101146.59;5010960;28;20227;-80
2023/11/23 03:09:46;;;;;;;14.87;9.13;;;;;;;5.95;100.00;101149.19;5010487;28;20210;-81
2023/11/23 03:12:13;;;;;;;13.77;8.97;;;;;;;5.96;100.00;101154.41;5013827;28;20651;-81
2023/11/23 03:14:39;;;;;;;13.30;8.67;;;;;;;5.97;100.00;101164.06;5008058;28;20667;-80
2023/11/23 03:17:07;;;;;;;14.67;8.90;;;;;;;5.97;100.00;101156.16;5009564;28;20711;-79
2023/11/23 03:19:34;;;;;;;15.27;9.50;;;;;;;6.00;100.00;101145.47;5008697;28;20265;-80
2023/11/23 03:22:00;;;;;;;14.03;8.20;;;;;;;6.05;100.00;101146.16;5008954;28;20202;-80
2023/11/23 03:24:27;;;;;;;13.33;9.00;;;;;;;6.05;100.00;101162.03;5004380;28;20208;-80
2023/11/23 03:26:53;;;;;;;10.73;8.03;;;;;;;6.05;100.00;101146.16;5009439;28;20230;-80
2023/11/23 03:29:20;;;;;;;16.23;9.47;;;;;;;6.08;100.00;101145.19;5008535;28;20214;-80
2023/11/23 03:31:47;;;;;;;19.93;9.33;;;;;;;6.07;100.00;101130.25;5010261;28;20222;-79
2023/11/23 03:34:15;;;;;;;13.47;7.60;;;;;;;6.08;100.00;101124.91;5010585;28;20554;-79
2023/11/23 03:36:43;;;;;;;13.97;8.10;;;;;;;6.13;100.00;101122.94;5011726;28;20262;-79
2023/11/23 03:39:09;;;;;;;11.97;8.57;;;;;;;6.14;100.00;101122.00;5009915;28;20635;-79
2023/11/23 03:41:36;;;;;;;12.27;8.27;;;;;;;6.16;100.00;101120.16;5010884;28;20277;-80
2023/11/23 03:44:02;;;;;;;11.97;7.17;;;;;;;6.21;100.00;101123.53;5011281;28;20215;-80
2023/11/23 03:46:29;;;;;;;18.00;9.13;;;;;;;6.21;100.00;101125.28;5010583;28;20719;-79
2023/11/23 03:48:56;;;;;;;15.23;9.60;;;;;;;6.19;100.00;101125.34;5007353;28;20204;-80
2023/11/23 03:51:24;;;;;;;17.80;8.93;;;;;;;6.22;100.00;101112.03;5009657;28;20261;-79
2023/11/23 03:53:51;;;;;;;12.27;7.43;;;;;;;6.23;100.00;101103.16;5009108;28;20215;-79
2023/11/23 03:56:19;;;;;;;15.57;9.33;;;;;;;6.27;100.00;101093.31;5008276;28;20233;-80
2023/11/23 03:58:45;;;;;;;15.97;10.00;;;;;;;6.26;100.00;101096.91;5017889;28;20312;-80
2023/11/23 04:01:14;;;;;;;15.93;9.30;;;;;;;6.24;100.00;101091.66;5009778;28;20295;-79
2023/11/23 04:03:45;;;;;;;12.93;8.53;;;;;;;6.31;100.00;101094.06;5012771;28;20211;-79
2023/11/23 04:06:12;;;;;;;13.73;9.40;;;;;;;6.30;100.00;101097.63;5014402;28;20223;-79
2023/11/23 04:08:41;;;;;;;14.93;9.13;;;;;;;6.30;100.00;101102.91;5009537;28;20203;-80
2023/11/23 04:11:10;;;;;;;14.20;10.27;;;;;;;6.28;100.00;101090.59;5012384;28;20227;-80
2023/11/23 04:13:36;;;;;;;13.57;9.13;;;;;;;6.32;100.00;101088.72;5010209;28;20629;-79
2023/11/23 04:16:03;;;;;;;15.70;10.60;;;;;;;6.32;100.00;101083.41;5013430;28;20234;-80
2023/11/23 04:18:29;;;;;;;15.73;10.00;;;;;;;6.33;100.00;101079.00;5013713;28;20613;-80
2023/11/23 04:20:56;;;;;;;19.50;10.13;;;;;;;6.35;100.00;101079.78;5011749;28;20707;-80
2023/11/23 04:23:22;;;;;;;14.43;10.53;;;;;;;6.37;100.00;101072.66;5010703;28;20213;-79
2023/11/23 04:25:50;;;;;;;14.13;10.63;;;;;;;6.37;100.00;101076.16;5008836;28;20211;-80
2023/11/23 04:28:17;;;;;;;12.30;9.50;;;;;;;6.36;100.00;101081.53;5013149;28;20203;-79
2023/11/23 04:30:43;;;;;;;17.67;11.40;;;;;;;6.34;100.00;101089.50;5012667;28;20656;-79
2023/11/23 04:33:10;;;;;;;14.87;11.43;;;;;;;6.34;100.00;101100.09;5013231;28;20580;-80
2023/11/23 04:35:36;;;;;;;17.73;12.20;;;;;;;6.34;100.00;101093.94;5009369;28;20839;-80
2023/11/23 04:38:03;;;;;;;16.50;11.50;;;;;;;6.34;100.00;101083.38;5012436;28;20234;-80
2023/11/23 04:40:29;;;;;;;16.20;11.07;;;;;;;6.33;100.00;101097.50;5009377;28;20218;-80
2023/11/23 04:42:57;;;;;;;15.13;10.93;;;;;;;6.35;100.00;101095.66;5016763;28;20206;-80
2023/11/23 04:45:22;;;;;;;14.13;10.90;;;;;;;6.35;100.00;101101.81;5011486;28;20203;-80
2023/11/23 04:47:49;;;;;;;15.60;11.70;;;;;;;6.36;100.00;101085.03;5011140;28;20783;-79
2023/11/23 04:50:16;;;;;;;18.33;12.40;;;;;;;6.39;100.00;101092.00;5007795;28;20219;-79
2023/11/23 04:52:42;;;;;;;16.60;10.77;;;;;;;6.40;100.00;101093.72;5009576;28;20302;-80
2023/11/23 04:55:09;;;;;;;16.53;11.63;;;;;;;6.42;100.00;101091.88;5011037;28;20223;-79
2023/11/23 04:57:35;;;;;;;16.33;11.50;;;;;;;6.44;100.00;101090.91;5011953;28;20254;-79
2023/11/23 05:00:04;;;;;;;15.47;10.67;;;;;;;6.45;100.00;101092.59;5012586;28;20656;-80
2023/11/23 05:02:31;;;;;;;16.63;12.33;;;;;;;6.46;100.00;101098.75;5008377;28;20209;-79
2023/11/23 05:04:58;;;;;;;15.27;11.43;;;;;;;6.47;100.00;101085.47;5008339;28;20271;-80
2023/11/23 05:07:25;;;;;;;15.47;11.87;;;;;;;6.50;100.00;101081.84;5009218;28;20230;-79
2023/11/23 05:09:52;;;;;;;22.20;13.27;;;;;;;6.50;100.00;101081.84;5011539;28;20211;-79
2023/11/23 05:12:18;;;;;;;16.13;11.67;;;;;;;6.50;100.00;101068.59;5002186;28;20226;-79
2023/11/23 05:14:45;;;;;;;17.03;11.57;;;;;;;6.49;100.00;101069.53;5008106;28;20578;-80
2023/11/23 05:17:12;;;;;;;14.97;10.47;;;;;;;6.53;100.00;101073.78;5010257;28;20226;-79
2023/11/23 05:19:39;;;;;;;14.40;11.43;;;;;;;6.58;100.00;101077.13;5011803;28;20206;-79
2023/11/23 05:22:05;;;;;;;16.53;12.20;;;;;;;6.60;100.00;101077.91;5007514;28;20207;-79
2023/11/23 05:24:32;;;;;;;16.03;10.77;;;;;;;6.59;100.00;101071.75;5013203;28;20207;-79
2023/11/23 05:26:58;;;;;;;12.70;10.90;;;;;;;6.58;100.00;101067.38;5008144;28;20219;-79
2023/11/23 05:29:25;;;;;;;17.70;12.77;;;;;;;6.60;100.00;101065.53;5009616;28;20211;-79
2023/11/23 05:31:52;;;;;;;15.67;11.77;;;;;;;6.67;100.00;101065.28;5007976;28;20213;-79
2023/11/23 05:34:19;;;;;;;13.27;10.30;;;;;;;6.69;100.00;101061.66;5004756;28;20215;-80
2023/11/23 05:36:46;;;;;;;16.00;12.00;;;;;;;6.71;100.00;101065.09;5012524;28;20239;-80
2023/11/23 05:39:12;;;;;;;17.47;11.20;;;;;;;6.74;100.00;101067.63;5010599;28;20203;-80
2023/11/23 05:41:39;;;;;;;14.63;11.60;;;;;;;6.78;100.00;101069.22;5006337;28;20219;-79
2023/11/23 05:44:06;;;;;;;18.33;12.60;;;;;;;6.80;100.00;101075.31;5009082;28;20225;-80
2023/11/23 05:46:33;;;;;;;15.53;11.90;;;;;;;6.80;100.00;101066.53;5011370;28;20285;-80
2023/11/23 05:49:00;;;;;;;14.27;11.03;;;;;;;6.83;100.00;101067.22;5008835;28;20207;-80
2023/11/23 05:51:28;;;;;;;16.33;13.17;;;;;;;6.84;100.00;101065.44;5009716;28;20228;-82
2023/11/23 05:53:54;;;;;;;12.93;10.60;;;;;;;6.88;100.00;101052.03;5007368;28;20269;-82
2023/11/23 05:56:21;;;;;;;15.10;11.30;;;;;;;6.91;100.00;101032.50;5010217;28;20587;-82
2023/11/23 05:58:47;;;;;;;14.40;10.70;;;;;;;6.94;100.00;101054.44;5003318;28;20214;-82
2023/11/23 06:01:14;;;;;;;14.90;12.10;;;;;;;6.94;100.00;101058.88;5009744;28;20668;-82
2023/11/23 06:03:41;;;;;;;14.77;11.13;;;;;;;6.96;100.00;101051.72;5005130;28;20207;-83
2023/11/23 06:06:09;;;;;;;13.83;11.30;;;;;;;7.02;100.00;101034.69;5015719;28;20314;-81
2023/11/23 06:08:36;;;;;;;15.97;11.60;;;;;;;7.04;100.00;101028.41;5007291;28;20225;-81
2023/11/23 06:11:03;;;;;;;15.20;10.60;;;;;;;7.05;100.00;101018.69;5010086;28;20213;-81
2023/11/23 06:13:30;;;;;;;16.47;11.17;;;;;;;7.10;100.00;101028.16;5008006;28;20234;-80
2023/11/23 06:15:57;;;;;;;13.17;10.17;;;;;;;7.10;100.00;101014.91;4999432;28;20266;-81
2023/11/23 06:18:24;;;;;;;16.07;11.77;;;;;;;7.12;100.00;101039.53;5008095;28;20668;-81
2023/11/23 06:20:51;;;;;;;14.87;11.23;;;;;;;7.15;100.00;101027.97;5004767;28;20217;-81
2023/11/23 06:23:17;;;;;;;15.93;12.03;;;;;;;7.15;100.00;101020.88;5001684;28;20207;-81
2023/11/23 06:25:45;;;;;;;19.53;12.73;;;;;;;7.18;100.00;101019.84;5006827;28;20226;-80
2023/11/23 06:28:11;;;;;;;19.07;13.20;;;;;;;7.19;100.00;101017.16;5005602;28;20230;-80
2023/11/23 06:30:38;;;;;;;16.27;12.97;;;;;;;7.22;100.00;101016.16;5005953;28;20210;-80
2023/11/23 06:33:04;;;;;;;16.80;12.57;;;;;;;7.26;100.00;101013.31;5005499;28;20215;-81
2023/11/23 06:35:31;;;;;;;18.63;12.53;;;;;;;7.31;100.00;101016.63;5008282;28;20204;-81
2023/11/23 06:37:57;;;;;;;15.60;12.93;;;;;;;7.32;100.00;101009.53;5008473;28;20223;-82
2023/11/23 06:40:24;;;;;;;19.07;13.07;;;;;;;7.35;100.00;101012.03;5003899;28;20199;-81
2023/11/23 06:42:52;;;;;;;21.80;14.30;;;;;;;7.41;100.00;101009.13;5006723;28;20217;-83
2023/11/23 06:45:18;;;;;;;22.20;15.10;;;;;;;7.43;100.00;101014.34;5006542;28;20221;-83
2023/11/23 06:47:45;;;;;;;19.20;15.23;;;;;;;7.45;100.00;101009.84;5007556;28;20241;-82
2023/11/23 06:50:11;;;;;;;18.47;13.37;;;;;;;7.47;100.00;101006.22;5004108;28;20581;-82
2023/11/23 06:52:38;;;;;;;22.97;16.37;;;;;;;7.52;100.00;101014.81;5008745;28;20584;-82
2023/11/23 06:55:06;;;;;;;20.83;14.27;;;;;;;7.55;100.00;101004.06;5007175;28;20207;-82
2023/11/23 06:57:32;;;;;;;19.00;14.07;;;;;;;7.58;100.00;100992.47;5004990;28;20230;-83
2023/11/23 07:00:10;;;;;;;20.80;15.30;;;;;;;7.62;100.00;101000.22;5006191;28;20218;-82
2023/11/23 07:02:37;;;;;;;19.27;14.17;;;;;;;7.64;100.00;101003.66;5007257;28;20222;-82
2023/11/23 07:05:04;;;;;;;17.73;12.30;;;;;;;7.68;100.00;100990.25;5005186;28;20687;-82
2023/11/23 07:07:32;;;;;;;18.77;12.23;;;;;;;7.70;100.00;100999.88;5002992;28;20222;-83
2023/11/23 07:09:58;;;;;;;18.17;13.23;;;;;;;7.74;100.00;101006.72;5005359;28;20629;-82
2023/11/23 07:12:26;;;;;;;17.37;12.60;;;;;;;7.75;100.00;100999.63;5007884;28;20217;-82
2023/11/23 07:14:52;;;;;;;15.63;12.07;;;;;;;7.74;100.00;101008.53;5005280;28;20202;-83
2023/11/23 07:17:20;;;;;;;14.47;11.57;;;;;;;7.77;100.00;101003.09;5004550;28;22065;-82
2023/11/23 07:19:47;;;;;;;16.07;11.77;;;;;;;7.81;100.00;101005.53;5009105;28;20215;-82
2023/11/23 07:22:13;;;;;;;18.30;11.60;;;;;;;7.85;100.00;101000.94;5006419;28;20199;-82
2023/11/23 07:24:40;;;;;;;15.90;11.03;;;;;;;7.87;100.00;100992.00;5009944;28;20198;-82
2023/11/23 07:27:06;;;;;;;12.67;10.67;;;;;;;7.86;100.00;100986.75;5006854;28;20725;-81
2023/11/23 07:29:33;;;;;;;13.27;10.93;;;;;;;7.88;100.00;100988.38;5006319;28;20203;-82
2023/11/23 07:32:00;;;;;;;14.90;11.67;;;;;;;7.90;100.00;100981.22;5010704;28;20202;-82
2023/11/23 07:34:28;;;;;;;15.57;11.40;;;;;;;7.90;100.00;100975.91;5009012;28;20203;-82
2023/11/23 07:36:55;;;;;;;16.57;12.23;;;;;;;7.93;100.00;100972.25;5010109;28;20231;-81
2023/11/23 07:39:22;;;;;;;13.70;10.07;;;;;;;7.96;100.00;100967.69;5007959;28;20257;-80
2023/11/23 07:41:48;;;;;;;15.73;11.20;;;;;;;7.96;100.00;100962.38;5003780;28;20208;-82
2023/11/23 07:44:15;;;;;;;15.00;11.10;;;;;;;7.93;100.00;100965.16;5011381;28;20211;-82
2023/11/23 07:46:41;;;;;;;12.43;9.30;;;;;;;7.93;100.00;100948.41;5008336;28;20228;-81
2023/11/23 07:49:08;;;;;;;13.60;10.20;;;;;;;7.96;100.00;100945.59;5008930;28;20234;-82
2023/11/23 07:51:36;;;;;;;12.13;9.47;;;;;;;7.97;100.00;100931.41;5007040;28;20205;-81
2023/11/23 07:54:02;;;;;;;11.27;9.27;;;;;;;7.97;100.00;100923.44;5003294;28;20231;-81
2023/11/23 07:56:29;;;;;;;12.23;8.97;;;;;;;7.99;100.00;100924.25;5011563;28;20231;-81
2023/11/23 07:58:55;;;;;;;10.97;9.43;;;;;;;8.00;100.00;100918.88;5005999;28;20234;-81
2023/11/23 08:01:22;;;;;;;15.07;10.27;;;;;;;8.01;100.00;100903.81;5011571;28;20214;-82
2023/11/23 08:03:48;;;;;;;11.67;9.00;;;;;;;8.00;100.00;100905.59;5009778;28;20222;-81
2023/11/23 08:06:15;;;;;;;10.97;9.30;;;;;;;8.04;100.00;100908.13;5010379;28;20246;-82
2023/11/23 08:08:43;;;;;;;12.17;9.90;;;;;;;8.04;100.00;100908.97;5011651;28;20207;-81
2023/11/23 08:11:10;;;;;;;11.90;9.93;;;;;;;8.08;100.00;100893.75;5006726;28;20218;-82
2023/11/23 08:13:36;;;;;;;13.13;10.03;;;;;;;8.09;100.00;100904.28;5012728;28;20206;-81
2023/11/23 08:16:04;;;;;;;13.47;10.03;;;;;;;8.11;100.00;100902.41;5008426;28;20237;-81
2023/11/23 08:18:30;;;;;;;13.17;9.53;;;;;;;8.12;100.00;100903.28;5008122;28;20229;-81
2023/11/23 08:20:58;;;;;;;13.10;10.03;;;;;;;8.08;100.00;100905.22;5010775;28;20207;-82
2023/11/23 08:23:25;;;;;;;12.53;10.60;;;;;;;8.11;100.00;100907.72;5012358;28;20238;-82
2023/11/23 08:25:54;;;;;;;12.20;10.13;;;;;;;8.15;100.00;100896.03;5010456;28;20211;-82
2023/11/23 08:28:21;;;;;;;13.90;11.10;;;;;;;8.15;100.00;100900.47;5010607;28;20265;-82
2023/11/23 08:30:48;;;;;;;13.13;10.70;;;;;;;8.17;100.00;100888.84;5009060;28;20207;-82
2023/11/23 08:33:15;;;;;;;13.07;10.23;;;;;;;8.20;100.00;100890.50;5007621;28;20223;-81
2023/11/23 08:35:41;;;;;;;11.43;9.30;;;;;;;8.23;100.00;100896.53;5006242;28;20637;-81
2023/11/23 08:38:08;;;;;;;13.83;10.40;;;;;;;8.25;100.00;100896.41;5004397;28;20231;-82
2023/11/23 08:40:34;;;;;;;14.07;11.07;;;;;;;8.24;100.00;100892.91;5006445;28;20209;-82
2023/11/23 08:43:03;;;;;;;13.77;10.37;;;;;;;8.23;100.00;100893.88;5008613;28;20210;-82
2023/11/23 08:45:30;;;;;;;11.57;9.80;;;;;;;8.27;100.00;100890.09;5010806;28;20578;-82
2023/11/23 08:47:56;;;;;;;12.13;9.50;;;;;;;8.33;100.00;100897.81;5009876;28;20750;-82
2023/11/23 08:50:23;;;;;;;12.03;9.30;;;;;;;8.34;100.00;100893.34;5009482;28;20686;-82
2023/11/23 08:52:49;;;;;;;12.60;10.17;;;;;;;8.34;100.00;100886.25;5011086;28;20207;-82
2023/11/23 08:55:16;;;;;;;11.80;9.50;;;;;;;8.33;100.00;100865.09;5009178;28;20218;-82
2023/11/23 08:57:42;;;;;;;11.73;9.47;;;;;;;8.38;100.00;100868.38;5010278;28;20254;-81
2023/11/23 09:00:11;;;;;;;11.10;9.13;;;;;;;8.39;100.00;100866.59;5011636;28;20237;-82
2023/11/23 09:02:38;;;;;;;11.87;9.33;;;;;;;8.41;100.00;100848.81;5006542;28;20247;-81
2023/11/23 09:05:07;;;;;;;10.67;8.80;;;;;;;8.44;100.00;100849.47;5007052;28;20203;-82
2023/11/23 09:07:34;;;;;;;10.03;8.20;;;;;;;8.45;100.00;100845.88;5008556;28;20330;-82
2023/11/23 09:10:01;;;;;;;11.73;8.93;;;;;;;8.48;100.00;100843.06;5012317;28;20704;-83
2023/11/23 09:12:32;;;;;;;11.37;8.23;;;;;;;8.51;100.00;100829.66;5009635;28;20269;-83
2023/11/23 09:14:59;;;;;;;10.10;7.70;;;;;;;8.53;100.00;100824.28;5012690;28;20667;-83
2023/11/23 09:17:27;;;;;;;9.27;8.23;;;;;;;8.57;100.00;100809.91;5008160;28;20227;-82
2023/11/23 09:19:53;;;;;;;9.80;8.03;;;;;;;8.58;100.00;100816.94;5009738;28;20238;-83
2023/11/23 09:22:20;;;;;;;12.73;9.00;;;;;;;8.62;100.00;100821.97;5004953;28;20211;-83
2023/11/23 09:24:46;;;;;;;10.57;8.57;;;;;;;8.63;100.00;100828.16;5012143;28;20207;-82
2023/11/23 09:27:14;;;;;;;11.00;8.77;;;;;;;8.60;100.00;100837.13;5007603;28;20227;-83
2023/11/23 09:29:41;;;;;;;12.67;9.47;;;;;;;8.66;100.00;100830.66;5010124;28;20672;-82
2023/11/23 09:32:08;;;;;;;9.77;8.30;;;;;;;8.66;100.00;100828.84;5004193;28;20210;-82
2023/11/23 09:34:36;;;;;;;10.90;8.80;;;;;;;8.69;100.00;100825.19;5004198;28;20238;-82
2023/11/23 09:37:03;;;;;;;12.07;8.83;;;;;;;8.71;100.00;100807.38;5007304;28;20231;-82
2023/11/23 09:39:29;;;;;;;11.47;9.20;;;;;;;8.72;100.00;100817.06;5009693;28;20217;-82
2023/11/23 09:41:59;;;;;;;11.53;9.60;;;;;;;8.71;100.00;100810.03;5003167;28;20210;-82
2023/11/23 09:44:26;;;;;;;9.87;8.57;;;;;;;8.78;100.00;100800.78;5009318;28;20213;-82
2023/11/23 09:46:54;;;;;;;9.53;8.53;;;;;;;8.79;100.00;100791.88;5006452;28;20416;-81
2023/11/23 09:49:21;;;;;;;10.57;9.27;;;;;;;8.82;100.00;100797.03;5004811;28;20686;-81
2023/11/23 09:51:50;;;;;;;10.77;9.27;;;;;;;8.83;100.00;100804.06;5010888;28;20605;-82
2023/11/23 09:54:21;;;;;;;12.70;9.37;;;;;;;8.88;100.00;100795.84;5006128;28;20206;-81
2023/11/23 09:56:48;;;;;;;11.57;10.37;;;;;;;8.88;100.00;100802.03;5010388;28;20243;-82
2023/11/23 09:59:15;;;;;;;13.40;9.80;;;;;;;8.90;100.00;100792.16;5009112;28;20241;-82
2023/11/23 10:01:44;;;;;;;14.40;11.43;;;;;;;8.91;100.00;100782.41;5006867;28;20905;-82
2023/11/23 10:04:11;;;;;;;15.13;11.70;;;;;;;8.91;100.00;100791.22;5007071;28;20214;-83
2023/11/23 10:06:37;;;;;;;14.13;12.27;;;;;;;8.94;100.00;100783.09;5006962;28;20313;-82
2023/11/23 10:09:09;;;;;;;15.97;12.87;;;;;;;8.99;100.00;100785.47;5007958;28;20207;-82
2023/11/23 10:11:36;;;;;;;18.77;13.50;;;;;;;9.02;100.00;100775.56;5006649;28;20230;-82
2023/11/23 10:14:02;;;;;;;18.97;13.27;;;;;;;9.03;100.00;100764.00;4998622;28;20243;-83
2023/11/23 10:16:31;;;;;;;17.43;11.83;;;;;;;9.04;100.00;100767.50;5009118;28;20290;-83
2023/11/23 10:18:58;;;;;;;17.93;12.43;;;;;;;9.02;100.00;100762.28;5005901;28;20231;-82
2023/11/23 10:21:24;;;;;;;16.37;13.03;;;;;;;9.01;100.00;100747.28;5008726;28;20210;-84
2023/11/23 10:23:51;;;;;;;16.90;13.40;;;;;;;9.07;100.00;100747.88;5007307;28;20215;-82
2023/11/23 10:26:19;;;;;;;16.43;10.80;;;;;;;9.10;100.00;100753.03;5006968;28;20608;-82
2023/11/23 10:28:45;;;;;;;15.47;11.57;;;;;;;9.09;100.00;100751.31;5003594;28;20210;-82
2023/11/23 10:31:12;;;;;;;16.23;11.47;;;;;;;9.05;100.00;100732.88;5006678;28;20214;-83
2023/11/23 10:33:38;;;;;;;18.13;12.73;;;;;;;9.06;100.00;100728.44;5007842;28;20211;-82
2023/11/23 10:36:06;;;;;;;14.70;11.73;;;;;;;9.14;100.00;100727.97;5005380;28;20207;-82
2023/11/23 10:38:37;;;;;;;17.30;11.80;;;;;;;9.14;100.00;100725.31;5010874;28;20234;-82
2023/11/23 10:41:06;;;;;;;12.60;10.77;;;;;;;9.16;100.00;100718.13;5005496;28;20622;-82
2023/11/23 10:43:36;;;;;;;12.03;10.73;;;;;;;9.18;100.00;100711.78;5006525;28;20269;-82
2023/11/23 10:46:06;;;;;;;13.33;9.73;;;;;;;9.20;100.00;100714.34;5006419;28;20233;-81
2023/11/23 10:48:34;;;;;;;13.30;9.83;;;;;;;9.24;100.00;100711.44;5006749;28;20570;-82
2023/11/23 10:51:02;;;;;;;12.43;11.10;;;;;;;9.25;100.00;100699.03;5002494;28;20213;-83
2023/11/23 10:53:29;;;;;;;12.90;10.67;;;;;;;9.24;100.00;100690.19;5008090;28;20199;-81
2023/11/23 10:55:59;;;;;;;15.30;12.00;;;;;;;9.23;100.00;100683.16;5007322;28;20223;-82
2023/11/23 10:58:28;;;;;;;14.17;11.90;;;;;;;9.25;100.00;100683.06;5004641;28;20227;-83
2023/11/23 11:00:57;;;;;;;14.43;12.00;;;;;;;9.28;100.00;100685.56;5006503;28;20253;-82
2023/11/23 11:03:25;;;;;;;15.13;12.03;;;;;;;9.29;100.00;100685.47;5007016;28;20199;-83
2023/11/23 11:05:53;;;;;;;16.70;11.83;;;;;;;9.37;100.00;100679.69;5007407;28;20210;-82
2023/11/23 11:08:24;;;;;;;14.17;11.07;;;;;;;9.36;100.00;100670.88;5006109;28;20214;-82
2023/11/23 11:10:53;;;;;;;14.63;10.90;;;;;;;9.35;100.00;100663.84;5008569;28;20298;-82
2023/11/23 11:13:23;;;;;;;13.27;11.17;;;;;;;9.35;100.00;100649.69;5009133;28;20207;-82
2023/11/23 11:15:53;;;;;;;11.53;9.40;;;;;;;9.38;100.00;100661.00;5008399;28;20207;-82